EDDM/MUC METAR and TAF weather

Enter ICAO airport designator
Station Type Date Time Source
EDDM METAR 2019/10/21 04:50 UTC NOAA

EDDM 210450Z 24003KT CAVOK 09/08 Q1015 NOSIG


Station Type Date Time Source
EDDM Decoded METAR 2019/10/21 04:50 UTC NOAA

Munchen, Germany (EDDM) 48-21N 011-47E
Oct 21, 2019 - 12:50 AM EDT / 2019.10.21 0450 UTC
Wind: from the WSW (240 degrees) at 3 MPH (3 KT):0
Visibility: greater than 7 mile(s):0
Temperature: 48 F (9 C)
Dew Point: 46 F (8 C)
Relative Humidity: 93%
Pressure (altimeter): 29.97 in. Hg (1015 hPa)
ob: EDDM 210450Z 24003KT CAVOK 09/08 Q1015 NOSIG
cycle: 5

Station Type Date Time Source
EDDM TAF 2019/10/21 03:48 UTC NOAA

TAF
AMD EDDM 210337Z 2103/2206 30005KT CAVOK
TEMPO 2103/2107 08004KT PROB30
TEMPO 2105/2107 3000 BCFG
BECMG 2117/2120 VRB02KT
BECMG 2200/2203 1200 BCFG PROB30
TEMPO 2202/2206 0700 FG OVC002

Example: see airport list